sensor_id;sensor_type;location;lat;lon;timestamp;P1;durP1;ratioP1;P2;durP2;ratioP2
71236;SDS011;58984;51.960;5.582;2023-11-21T00:01:35;29.23;;;14.13;;
71236;SDS011;58984;51.960;5.582;2023-11-21T00:04:02;57.45;;;18.10;;
71236;SDS011;58984;51.960;5.582;2023-11-21T00:06:27;32.70;;;15.57;;
71236;SDS011;58984;51.960;5.582;2023-11-21T00:08:55;24.83;;;14.82;;
71236;SDS011;58984;51.960;5.582;2023-11-21T00:11:20;28.17;;;14.55;;
71236;SDS011;58984;51.960;5.582;2023-11-21T00:13:46;31.05;;;15.02;;
71236;SDS011;58984;51.960;5.582;2023-11-21T00:16:12;26.70;;;13.82;;
71236;SDS011;58984;51.960;5.582;2023-11-21T00:18:38;25.20;;;14.02;;
71236;SDS011;58984;51.960;5.582;2023-11-21T00:21:04;23.08;;;14.40;;
71236;SDS011;58984;51.960;5.582;2023-11-21T00:23:30;26.02;;;14.13;;
71236;SDS011;58984;51.960;5.582;2023-11-21T00:25:55;22.67;;;14.75;;
71236;SDS011;58984;51.960;5.582;2023-11-21T00:28:21;25.63;;;13.90;;
71236;SDS011;58984;51.960;5.582;2023-11-21T00:30:47;25.08;;;14.95;;
71236;SDS011;58984;51.960;5.582;2023-11-21T00:33:13;27.20;;;15.85;;
71236;SDS011;58984;51.960;5.582;2023-11-21T00:35:38;29.48;;;16.08;;
71236;SDS011;58984;51.960;5.582;2023-11-21T00:38:04;24.77;;;15.25;;
71236;SDS011;58984;51.960;5.582;2023-11-21T00:40:29;30.15;;;15.35;;
71236;SDS011;58984;51.960;5.582;2023-11-21T00:42:55;22.63;;;14.93;;
71236;SDS011;58984;51.960;5.582;2023-11-21T00:45:21;22.73;;;13.90;;
71236;SDS011;58984;51.960;5.582;2023-11-21T00:47:47;23.42;;;15.18;;
71236;SDS011;58984;51.960;5.582;2023-11-21T00:50:12;26.48;;;14.65;;
71236;SDS011;58984;51.960;5.582;2023-11-21T00:52:38;25.40;;;14.50;;
71236;SDS011;58984;51.960;5.582;2023-11-21T00:55:04;27.50;;;14.57;;
71236;SDS011;58984;51.960;5.582;2023-11-21T00:57:32;29.30;;;14.88;;
71236;SDS011;58984;51.960;5.582;2023-11-21T00:59:58;25.52;;;15.38;;
71236;SDS011;58984;51.960;5.582;2023-11-21T01:02:23;24.80;;;15.02;;
71236;SDS011;58984;51.960;5.582;2023-11-21T01:04:50;25.35;;;14.25;;
71236;SDS011;58984;51.960;5.582;2023-11-21T01:07:16;25.90;;;14.57;;
71236;SDS011;58984;51.960;5.582;2023-11-21T01:09:41;23.50;;;14.55;;
71236;SDS011;58984;51.960;5.582;2023-11-21T01:12:09;23.13;;;14.30;;
71236;SDS011;58984;51.960;5.582;2023-11-21T01:14:34;27.85;;;14.38;;
71236;SDS011;58984;51.960;5.582;2023-11-21T01:17:02;24.27;;;13.77;;
71236;SDS011;58984;51.960;5.582;2023-11-21T01:19:29;24.95;;;13.75;;
71236;SDS011;58984;51.960;5.582;2023-11-21T01:21:54;24.35;;;14.27;;
71236;SDS011;58984;51.960;5.582;2023-11-21T01:24:20;23.27;;;14.23;;
71236;SDS011;58984;51.960;5.582;2023-11-21T01:26:46;24.77;;;13.60;;
71236;SDS011;58984;51.960;5.582;2023-11-21T01:29:12;27.00;;;14.00;;
71236;SDS011;58984;51.960;5.582;2023-11-21T01:31:38;23.55;;;12.82;;
71236;SDS011;58984;51.960;5.582;2023-11-21T01:34:04;18.58;;;13.80;;
71236;SDS011;58984;51.960;5.582;2023-11-21T01:36:33;20.80;;;13.45;;
71236;SDS011;58984;51.960;5.582;2023-11-21T01:38:58;22.25;;;13.10;;
71236;SDS011;58984;51.960;5.582;2023-11-21T01:41:25;24.58;;;12.80;;
71236;SDS011;58984;51.960;5.582;2023-11-21T01:43:54;25.42;;;14.43;;
71236;SDS011;58984;51.960;5.582;2023-11-21T01:46:20;22.95;;;13.02;;
71236;SDS011;58984;51.960;5.582;2023-11-21T01:48:46;19.40;;;12.55;;
71236;SDS011;58984;51.960;5.582;2023-11-21T01:51:13;17.63;;;12.88;;
71236;SDS011;58984;51.960;5.582;2023-11-21T01:53:39;20.02;;;12.75;;
71236;SDS011;58984;51.960;5.582;2023-11-21T01:56:06;20.25;;;11.68;;
71236;SDS011;58984;51.960;5.582;2023-11-21T01:58:33;18.00;;;12.15;;
71236;SDS011;58984;51.960;5.582;2023-11-21T02:00:59;20.17;;;13.25;;
71236;SDS011;58984;51.960;5.582;2023-11-21T02:03:24;16.88;;;11.55;;
71236;SDS011;58984;51.960;5.582;2023-11-21T02:05:51;17.48;;;11.30;;
71236;SDS011;58984;51.960;5.582;2023-11-21T02:08:18;18.52;;;11.27;;
71236;SDS011;58984;51.960;5.582;2023-11-21T02:10:44;18.98;;;11.35;;
71236;SDS011;58984;51.960;5.582;2023-11-21T02:13:10;15.40;;;10.20;;
71236;SDS011;58984;51.960;5.582;2023-11-21T02:15:36;18.00;;;11.00;;
71236;SDS011;58984;51.960;5.582;2023-11-21T02:18:03;14.20;;;9.57;;
71236;SDS011;58984;51.960;5.582;2023-11-21T02:20:31;17.10;;;10.13;;
71236;SDS011;58984;51.960;5.582;2023-11-21T02:22:59;15.40;;;10.10;;
71236;SDS011;58984;51.960;5.582;2023-11-21T02:25:27;14.43;;;9.82;;
71236;SDS011;58984;51.960;5.582;2023-11-21T02:27:58;13.65;;;9.73;;
71236;SDS011;58984;51.960;5.582;2023-11-21T02:30:27;11.27;;;8.40;;
71236;SDS011;58984;51.960;5.582;2023-11-21T02:32:53;14.93;;;9.27;;
71236;SDS011;58984;51.960;5.582;2023-11-21T02:35:19;11.68;;;8.93;;
71236;SDS011;58984;51.960;5.582;2023-11-21T02:37:46;13.52;;;7.97;;
71236;SDS011;58984;51.960;5.582;2023-11-21T02:40:12;13.80;;;8.55;;
71236;SDS011;58984;51.960;5.582;2023-11-21T02:42:39;13.35;;;9.07;;
71236;SDS011;58984;51.960;5.582;2023-11-21T02:45:06;11.90;;;8.70;;
71236;SDS011;58984;51.960;5.582;2023-11-21T02:47:32;14.20;;;9.10;;
71236;SDS011;58984;51.960;5.582;2023-11-21T02:49:58;12.75;;;8.35;;
71236;SDS011;58984;51.960;5.582;2023-11-21T02:52:24;15.90;;;9.40;;
71236;SDS011;58984;51.960;5.582;2023-11-21T02:54:50;13.98;;;9.00;;
71236;SDS011;58984;51.960;5.582;2023-11-21T02:57:16;11.80;;;9.18;;
71236;SDS011;58984;51.960;5.582;2023-11-21T02:59:42;13.80;;;9.73;;
71236;SDS011;58984;51.960;5.582;2023-11-21T03:02:07;12.45;;;9.00;;
71236;SDS011;58984;51.960;5.582;2023-11-21T03:04:33;13.20;;;9.48;;
71236;SDS011;58984;51.960;5.582;2023-11-21T03:07:00;15.35;;;9.50;;
71236;SDS011;58984;51.960;5.582;2023-11-21T03:09:25;12.93;;;9.13;;
71236;SDS011;58984;51.960;5.582;2023-11-21T03:11:51;14.48;;;9.60;;
71236;SDS011;58984;51.960;5.582;2023-11-21T03:14:18;16.90;;;11.27;;
71236;SDS011;58984;51.960;5.582;2023-11-21T03:16:43;17.25;;;10.65;;
71236;SDS011;58984;51.960;5.582;2023-11-21T03:19:10;14.75;;;9.68;;
71236;SDS011;58984;51.960;5.582;2023-11-21T03:21:36;19.85;;;11.30;;
71236;SDS011;58984;51.960;5.582;2023-11-21T03:24:02;15.35;;;10.57;;
71236;SDS011;58984;51.960;5.582;2023-11-21T03:26:28;15.75;;;10.85;;
71236;SDS011;58984;51.960;5.582;2023-11-21T03:28:54;17.67;;;10.73;;
71236;SDS011;58984;51.960;5.582;2023-11-21T03:31:20;16.80;;;11.43;;
71236;SDS011;58984;51.960;5.582;2023-11-21T03:33:46;18.50;;;11.43;;
71236;SDS011;58984;51.960;5.582;2023-11-21T03:36:12;19.50;;;12.10;;
71236;SDS011;58984;51.960;5.582;2023-11-21T03:38:39;20.08;;;11.52;;
71236;SDS011;58984;51.960;5.582;2023-11-21T03:41:05;21.00;;;11.20;;
71236;SDS011;58984;51.960;5.582;2023-11-21T03:43:31;19.25;;;11.40;;
71236;SDS011;58984;51.960;5.582;2023-11-21T03:45:57;19.73;;;12.55;;
71236;SDS011;58984;51.960;5.582;2023-11-21T03:48:22;20.48;;;11.27;;
71236;SDS011;58984;51.960;5.582;2023-11-21T03:50:48;19.10;;;11.75;;
71236;SDS011;58984;51.960;5.582;2023-11-21T03:53:14;17.40;;;12.32;;
71236;SDS011;58984;51.960;5.582;2023-11-21T03:55:39;18.08;;;11.15;;
71236;SDS011;58984;51.960;5.582;2023-11-21T03:58:05;17.50;;;12.18;;
71236;SDS011;58984;51.960;5.582;2023-11-21T04:00:30;20.23;;;11.90;;
71236;SDS011;58984;51.960;5.582;2023-11-21T04:02:56;22.40;;;11.40;;
71236;SDS011;58984;51.960;5.582;2023-11-21T04:05:22;19.35;;;11.73;;
71236;SDS011;58984;51.960;5.582;2023-11-21T04:07:49;18.90;;;11.45;;
71236;SDS011;58984;51.960;5.582;2023-11-21T04:10:15;16.55;;;11.15;;
71236;SDS011;58984;51.960;5.582;2023-11-21T04:12:41;18.23;;;11.43;;
71236;SDS011;58984;51.960;5.582;2023-11-21T04:15:07;20.02;;;11.10;;
71236;SDS011;58984;51.960;5.582;2023-11-21T04:17:36;15.32;;;10.75;;
71236;SDS011;58984;51.960;5.582;2023-11-21T04:20:02;19.63;;;11.20;;
71236;SDS011;58984;51.960;5.582;2023-11-21T04:22:33;16.70;;;11.05;;
71236;SDS011;58984;51.960;5.582;2023-11-21T04:24:59;17.52;;;10.38;;
71236;SDS011;58984;51.960;5.582;2023-11-21T04:27:24;16.05;;;10.68;;
71236;SDS011;58984;51.960;5.582;2023-11-21T04:29:50;17.05;;;11.38;;
71236;SDS011;58984;51.960;5.582;2023-11-21T04:32:15;20.15;;;11.48;;
71236;SDS011;58984;51.960;5.582;2023-11-21T04:34:41;20.95;;;11.30;;
71236;SDS011;58984;51.960;5.582;2023-11-21T04:37:07;17.08;;;11.30;;
71236;SDS011;58984;51.960;5.582;2023-11-21T04:39:32;20.10;;;11.45;;
71236;SDS011;58984;51.960;5.582;2023-11-21T04:41:58;19.52;;;11.63;;
71236;SDS011;58984;51.960;5.582;2023-11-21T04:44:23;15.85;;;9.88;;
71236;SDS011;58984;51.960;5.582;2023-11-21T04:46:49;17.15;;;10.93;;
71236;SDS011;58984;51.960;5.582;2023-11-21T04:49:14;18.45;;;10.65;;
71236;SDS011;58984;51.960;5.582;2023-11-21T04:51:40;17.75;;;10.30;;
71236;SDS011;58984;51.960;5.582;2023-11-21T04:54:05;17.20;;;10.32;;
71236;SDS011;58984;51.960;5.582;2023-11-21T04:56:31;16.27;;;10.18;;
71236;SDS011;58984;51.960;5.582;2023-11-21T04:58:57;17.98;;;11.48;;
71236;SDS011;58984;51.960;5.582;2023-11-21T05:01:23;13.63;;;9.63;;
71236;SDS011;58984;51.960;5.582;2023-11-21T05:03:48;20.27;;;11.10;;
71236;SDS011;58984;51.960;5.582;2023-11-21T05:06:14;19.67;;;10.63;;
71236;SDS011;58984;51.960;5.582;2023-11-21T05:08:40;19.23;;;11.52;;
71236;SDS011;58984;51.960;5.582;2023-11-21T05:11:05;19.23;;;10.90;;
71236;SDS011;58984;51.960;5.582;2023-11-21T05:13:35;20.02;;;10.82;;
71236;SDS011;58984;51.960;5.582;2023-11-21T05:16:01;17.60;;;10.65;;
71236;SDS011;58984;51.960;5.582;2023-11-21T05:18:32;18.42;;;11.10;;
71236;SDS011;58984;51.960;5.582;2023-11-21T05:20:57;19.05;;;10.50;;
71236;SDS011;58984;51.960;5.582;2023-11-21T05:23:23;17.45;;;10.70;;
71236;SDS011;58984;51.960;5.582;2023-11-21T05:25:49;16.73;;;10.88;;
71236;SDS011;58984;51.960;5.582;2023-11-21T05:28:15;17.35;;;9.70;;
71236;SDS011;58984;51.960;5.582;2023-11-21T05:30:40;20.27;;;11.05;;
71236;SDS011;58984;51.960;5.582;2023-11-21T05:33:06;19.90;;;10.85;;
71236;SDS011;58984;51.960;5.582;2023-11-21T05:35:32;21.02;;;11.85;;
71236;SDS011;58984;51.960;5.582;2023-11-21T05:37:57;19.95;;;11.25;;
71236;SDS011;58984;51.960;5.582;2023-11-21T05:40:23;16.85;;;10.45;;
71236;SDS011;58984;51.960;5.582;2023-11-21T05:42:51;18.08;;;10.52;;
71236;SDS011;58984;51.960;5.582;2023-11-21T05:45:17;18.20;;;11.10;;
71236;SDS011;58984;51.960;5.582;2023-11-21T05:47:44;16.77;;;10.15;;
71236;SDS011;58984;51.960;5.582;2023-11-21T05:50:11;17.45;;;10.43;;
71236;SDS011;58984;51.960;5.582;2023-11-21T05:52:39;16.05;;;10.23;;
71236;SDS011;58984;51.960;5.582;2023-11-21T05:55:06;18.02;;;9.75;;
71236;SDS011;58984;51.960;5.582;2023-11-21T05:57:36;17.00;;;10.85;;
71236;SDS011;58984;51.960;5.582;2023-11-21T06:00:06;19.63;;;10.50;;
71236;SDS011;58984;51.960;5.582;2023-11-21T06:02:40;15.45;;;10.10;;
71236;SDS011;58984;51.960;5.582;2023-11-21T06:05:06;22.25;;;11.13;;
71236;SDS011;58984;51.960;5.582;2023-11-21T06:07:33;22.42;;;11.05;;
71236;SDS011;58984;51.960;5.582;2023-11-21T06:10:00;17.70;;;10.30;;
71236;SDS011;58984;51.960;5.582;2023-11-21T06:12:36;22.55;;;10.65;;
71236;SDS011;58984;51.960;5.582;2023-11-21T06:15:02;18.15;;;10.75;;
71236;SDS011;58984;51.960;5.582;2023-11-21T06:17:34;18.08;;;10.18;;
71236;SDS011;58984;51.960;5.582;2023-11-21T06:20:03;16.48;;;10.10;;
71236;SDS011;58984;51.960;5.582;2023-11-21T06:22:34;16.02;;;9.90;;
71236;SDS011;58984;51.960;5.582;2023-11-21T06:25:03;18.50;;;10.45;;
71236;SDS011;58984;51.960;5.582;2023-11-21T06:27:33;18.30;;;10.20;;
71236;SDS011;58984;51.960;5.582;2023-11-21T06:30:01;17.77;;;10.32;;
71236;SDS011;58984;51.960;5.582;2023-11-21T06:32:27;17.83;;;10.70;;
71236;SDS011;58984;51.960;5.582;2023-11-21T06:34:54;18.73;;;11.50;;
71236;SDS011;58984;51.960;5.582;2023-11-21T06:37:26;19.92;;;10.30;;
71236;SDS011;58984;51.960;5.582;2023-11-21T06:39:52;20.60;;;11.05;;
71236;SDS011;58984;51.960;5.582;2023-11-21T06:42:18;18.25;;;10.98;;
71236;SDS011;58984;51.960;5.582;2023-11-21T06:44:45;20.08;;;10.77;;
71236;SDS011;58984;51.960;5.582;2023-11-21T06:47:11;22.30;;;11.38;;
71236;SDS011;58984;51.960;5.582;2023-11-21T06:49:36;22.60;;;11.23;;
71236;SDS011;58984;51.960;5.582;2023-11-21T06:52:03;19.38;;;11.63;;
71236;SDS011;58984;51.960;5.582;2023-11-21T06:54:30;17.23;;;11.48;;
71236;SDS011;58984;51.960;5.582;2023-11-21T06:56:56;19.15;;;10.98;;
71236;SDS011;58984;51.960;5.582;2023-11-21T06:59:22;21.15;;;11.45;;
71236;SDS011;58984;51.960;5.582;2023-11-21T07:01:48;20.20;;;11.65;;
71236;SDS011;58984;51.960;5.582;2023-11-21T07:04:14;16.92;;;10.77;;
71236;SDS011;58984;51.960;5.582;2023-11-21T07:06:40;21.13;;;11.80;;
71236;SDS011;58984;51.960;5.582;2023-11-21T07:09:06;20.58;;;10.95;;
71236;SDS011;58984;51.960;5.582;2023-11-21T07:11:33;24.23;;;12.23;;
71236;SDS011;58984;51.960;5.582;2023-11-21T07:13:59;17.42;;;11.32;;
71236;SDS011;58984;51.960;5.582;2023-11-21T07:16:30;20.10;;;11.10;;
71236;SDS011;58984;51.960;5.582;2023-11-21T07:18:56;20.42;;;10.93;;
71236;SDS011;58984;51.960;5.582;2023-11-21T07:21:24;22.90;;;12.55;;
71236;SDS011;58984;51.960;5.582;2023-11-21T07:23:50;27.90;;;11.90;;
71236;SDS011;58984;51.960;5.582;2023-11-21T07:26:16;22.73;;;12.30;;
71236;SDS011;58984;51.960;5.582;2023-11-21T07:28:41;20.38;;;11.40;;
71236;SDS011;58984;51.960;5.582;2023-11-21T07:31:07;18.15;;;11.60;;
71236;SDS011;58984;51.960;5.582;2023-11-21T07:33:32;20.33;;;11.50;;
71236;SDS011;58984;51.960;5.582;2023-11-21T07:35:58;20.02;;;11.75;;
71236;SDS011;58984;51.960;5.582;2023-11-21T07:38:24;25.83;;;11.93;;
71236;SDS011;58984;51.960;5.582;2023-11-21T07:40:49;19.73;;;11.38;;
71236;SDS011;58984;51.960;5.582;2023-11-21T07:43:15;21.02;;;11.57;;
71236;SDS011;58984;51.960;5.582;2023-11-21T07:45:40;22.52;;;11.23;;
71236;SDS011;58984;51.960;5.582;2023-11-21T07:48:07;21.15;;;12.32;;
71236;SDS011;58984;51.960;5.582;2023-11-21T07:50:32;22.02;;;12.10;;
71236;SDS011;58984;51.960;5.582;2023-11-21T07:52:58;24.33;;;13.85;;
71236;SDS011;58984;51.960;5.582;2023-11-21T07:55:24;23.10;;;12.57;;
71236;SDS011;58984;51.960;5.582;2023-11-21T07:57:50;21.35;;;12.65;;
71236;SDS011;58984;51.960;5.582;2023-11-21T08:00:15;26.75;;;12.75;;
71236;SDS011;58984;51.960;5.582;2023-11-21T08:02:41;20.98;;;12.68;;
71236;SDS011;58984;51.960;5.582;2023-11-21T08:05:12;23.17;;;11.93;;
71236;SDS011;58984;51.960;5.582;2023-11-21T08:07:38;27.63;;;13.30;;
71236;SDS011;58984;51.960;5.582;2023-11-21T08:10:04;19.80;;;12.50;;
71236;SDS011;58984;51.960;5.582;2023-11-21T08:12:30;23.15;;;12.48;;
71236;SDS011;58984;51.960;5.582;2023-11-21T08:14:56;22.85;;;12.13;;
71236;SDS011;58984;51.960;5.582;2023-11-21T08:17:21;20.63;;;12.43;;
71236;SDS011;58984;51.960;5.582;2023-11-21T08:19:48;23.52;;;12.18;;
71236;SDS011;58984;51.960;5.582;2023-11-21T08:22:17;19.40;;;12.30;;
71236;SDS011;58984;51.960;5.582;2023-11-21T08:24:43;17.45;;;11.00;;
71236;SDS011;58984;51.960;5.582;2023-11-21T08:27:11;20.95;;;12.45;;
71236;SDS011;58984;51.960;5.582;2023-11-21T08:29:40;19.60;;;12.35;;
71236;SDS011;58984;51.960;5.582;2023-11-21T08:32:07;25.77;;;11.40;;
71236;SDS011;58984;51.960;5.582;2023-11-21T08:34:32;18.95;;;11.60;;
71236;SDS011;58984;51.960;5.582;2023-11-21T08:36:58;20.35;;;11.30;;
71236;SDS011;58984;51.960;5.582;2023-11-21T08:39:24;19.65;;;10.23;;
71236;SDS011;58984;51.960;5.582;2023-11-21T08:41:55;17.85;;;11.35;;
71236;SDS011;58984;51.960;5.582;2023-11-21T08:44:21;20.77;;;11.70;;
71236;SDS011;58984;51.960;5.582;2023-11-21T08:46:51;16.13;;;11.18;;
71236;SDS011;58984;51.960;5.582;2023-11-21T08:49:17;20.42;;;11.20;;
71236;SDS011;58984;51.960;5.582;2023-11-21T08:51:44;18.10;;;10.68;;
71236;SDS011;58984;51.960;5.582;2023-11-21T08:54:10;15.85;;;10.57;;
71236;SDS011;58984;51.960;5.582;2023-11-21T08:56:37;18.45;;;9.77;;
71236;SDS011;58984;51.960;5.582;2023-11-21T08:59:02;18.35;;;11.48;;
71236;SDS011;58984;51.960;5.582;2023-11-21T09:01:31;17.38;;;10.00;;
71236;SDS011;58984;51.960;5.582;2023-11-21T09:03:57;14.30;;;9.73;;
71236;SDS011;58984;51.960;5.582;2023-11-21T09:06:23;14.90;;;9.43;;
71236;SDS011;58984;51.960;5.582;2023-11-21T09:08:49;17.45;;;10.30;;
71236;SDS011;58984;51.960;5.582;2023-11-21T09:11:15;17.52;;;9.45;;
71236;SDS011;58984;51.960;5.582;2023-11-21T09:13:45;13.82;;;9.75;;
71236;SDS011;58984;51.960;5.582;2023-11-21T09:16:14;18.10;;;9.80;;
71236;SDS011;58984;51.960;5.582;2023-11-21T09:18:41;15.52;;;9.45;;
71236;SDS011;58984;51.960;5.582;2023-11-21T09:21:06;14.15;;;9.60;;
71236;SDS011;58984;51.960;5.582;2023-11-21T09:23:33;17.27;;;9.35;;
71236;SDS011;58984;51.960;5.582;2023-11-21T09:25:59;17.00;;;9.93;;
71236;SDS011;58984;51.960;5.582;2023-11-21T09:28:26;29.33;;;17.63;;
71236;SDS011;58984;51.960;5.582;2023-11-21T09:30:52;27.10;;;15.25;;
71236;SDS011;58984;51.960;5.582;2023-11-21T09:33:18;24.45;;;13.23;;
71236;SDS011;58984;51.960;5.582;2023-11-21T09:35:46;22.05;;;12.35;;
71236;SDS011;58984;51.960;5.582;2023-11-21T09:38:12;22.08;;;12.93;;
71236;SDS011;58984;51.960;5.582;2023-11-21T09:40:38;19.77;;;11.63;;
71236;SDS011;58984;51.960;5.582;2023-11-21T09:43:05;30.98;;;14.35;;
71236;SDS011;58984;51.960;5.582;2023-11-21T09:45:36;24.10;;;13.25;;
71236;SDS011;58984;51.960;5.582;2023-11-21T09:48:03;20.75;;;12.05;;
71236;SDS011;58984;51.960;5.582;2023-11-21T09:50:31;19.02;;;11.30;;
71236;SDS011;58984;51.960;5.582;2023-11-21T09:55:27;20.80;;;11.05;;
71236;SDS011;58984;51.960;5.582;2023-11-21T09:58:00;22.92;;;12.35;;
71236;SDS011;58984;51.960;5.582;2023-11-21T10:00:28;21.67;;;11.05;;
71236;SDS011;58984;51.960;5.582;2023-11-21T10:02:57;19.17;;;11.25;;
71236;SDS011;58984;51.960;5.582;2023-11-21T10:05:27;17.65;;;10.30;;
71236;SDS011;58984;51.960;5.582;2023-11-21T10:07:56;15.98;;;9.38;;
71236;SDS011;58984;51.960;5.582;2023-11-21T10:10:23;16.40;;;9.63;;
71236;SDS011;58984;51.960;5.582;2023-11-21T10:12:50;15.32;;;9.20;;
71236;SDS011;58984;51.960;5.582;2023-11-21T10:15:24;17.25;;;10.40;;
71236;SDS011;58984;51.960;5.582;2023-11-21T10:20:38;20.38;;;10.07;;
71236;SDS011;58984;51.960;5.582;2023-11-21T10:23:19;12.93;;;8.90;;
71236;SDS011;58984;51.960;5.582;2023-11-21T10:26:04;17.10;;;10.40;;
71236;SDS011;58984;51.960;5.582;2023-11-21T10:29:00;15.48;;;9.05;;
71236;SDS011;58984;51.960;5.582;2023-11-21T10:31:45;14.20;;;9.60;;
71236;SDS011;58984;51.960;5.582;2023-11-21T10:34:28;16.80;;;10.57;;
71236;SDS011;58984;51.960;5.582;2023-11-21T10:36:54;17.20;;;9.82;;
71236;SDS011;58984;51.960;5.582;2023-11-21T10:39:25;17.73;;;10.15;;
71236;SDS011;58984;51.960;5.582;2023-11-21T10:41:56;15.77;;;10.52;;
71236;SDS011;58984;51.960;5.582;2023-11-21T10:44:22;18.02;;;9.45;;
71236;SDS011;58984;51.960;5.582;2023-11-21T10:46:52;14.73;;;9.60;;
71236;SDS011;58984;51.960;5.582;2023-11-21T10:49:37;17.50;;;10.98;;
71236;SDS011;58984;51.960;5.582;2023-11-21T10:52:08;17.05;;;10.98;;
71236;SDS011;58984;51.960;5.582;2023-11-21T10:54:46;18.58;;;10.93;;
71236;SDS011;58984;51.960;5.582;2023-11-21T10:57:18;18.10;;;11.05;;
71236;SDS011;58984;51.960;5.582;2023-11-21T10:59:54;23.17;;;12.73;;
71236;SDS011;58984;51.960;5.582;2023-11-21T11:02:36;21.08;;;11.07;;
71236;SDS011;58984;51.960;5.582;2023-11-21T11:05:04;15.70;;;10.80;;
71236;SDS011;58984;51.960;5.582;2023-11-21T11:33:55;19.10;;;10.48;;
71236;SDS011;58984;51.960;5.582;2023-11-21T11:37:07;23.25;;;10.20;;
71236;SDS011;58984;51.960;5.582;2023-11-21T11:39:48;19.23;;;10.30;;
71236;SDS011;58984;51.960;5.582;2023-11-21T11:42:24;15.30;;;10.38;;
71236;SDS011;58984;51.960;5.582;2023-11-21T11:45:22;13.30;;;8.43;;
71236;SDS011;58984;51.960;5.582;2023-11-21T11:51:35;13.45;;;9.02;;
71236;SDS011;58984;51.960;5.582;2023-11-21T11:54:42;11.43;;;7.47;;
71236;SDS011;58984;51.960;5.582;2023-11-21T11:57:30;13.73;;;8.50;;
71236;SDS011;58984;51.960;5.582;2023-11-21T12:00:09;15.93;;;8.82;;
71236;SDS011;58984;51.960;5.582;2023-11-21T12:05:58;13.75;;;5.70;;
71236;SDS011;58984;51.960;5.582;2023-11-21T12:08:31;13.88;;;7.85;;
71236;SDS011;58984;51.960;5.582;2023-11-21T12:10:58;14.80;;;7.63;;
71236;SDS011;58984;51.960;5.582;2023-11-21T12:20:18;13.55;;;7.15;;
71236;SDS011;58984;51.960;5.582;2023-11-21T12:22:45;13.45;;;7.25;;
71236;SDS011;58984;51.960;5.582;2023-11-21T12:25:18;14.20;;;7.80;;
71236;SDS011;58984;51.960;5.582;2023-11-21T12:27:47;13.68;;;7.68;;
71236;SDS011;58984;51.960;5.582;2023-11-21T12:30:18;14.52;;;7.65;;
71236;SDS011;58984;51.960;5.582;2023-11-21T12:32:45;11.95;;;7.05;;
71236;SDS011;58984;51.960;5.582;2023-11-21T12:35:14;9.90;;;6.13;;
71236;SDS011;58984;51.960;5.582;2023-11-21T12:37:44;13.43;;;7.10;;
71236;SDS011;58984;51.960;5.582;2023-11-21T12:40:11;10.88;;;6.60;;
71236;SDS011;58984;51.960;5.582;2023-11-21T12:42:43;11.98;;;6.55;;
71236;SDS011;58984;51.960;5.582;2023-11-21T12:47:43;10.10;;;6.80;;
71236;SDS011;58984;51.960;5.582;2023-11-21T12:50:10;12.23;;;6.70;;
71236;SDS011;58984;51.960;5.582;2023-11-21T12:52:42;12.60;;;6.55;;
71236;SDS011;58984;51.960;5.582;2023-11-21T12:55:18;12.82;;;7.65;;
71236;SDS011;58984;51.960;5.582;2023-11-21T12:57:49;10.77;;;6.07;;
71236;SDS011;58984;51.960;5.582;2023-11-21T13:00:20;10.50;;;6.80;;
71236;SDS011;58984;51.960;5.582;2023-11-21T13:02:53;10.40;;;6.03;;
71236;SDS011;58984;51.960;5.582;2023-11-21T13:08:16;8.63;;;6.40;;
71236;SDS011;58984;51.960;5.582;2023-11-21T13:10:45;12.02;;;7.32;;
71236;SDS011;58984;51.960;5.582;2023-11-21T13:13:28;10.77;;;7.38;;
71236;SDS011;58984;51.960;5.582;2023-11-21T13:18:29;13.65;;;8.85;;
71236;SDS011;58984;51.960;5.582;2023-11-21T13:20:56;12.95;;;7.70;;
71236;SDS011;58984;51.960;5.582;2023-11-21T13:23:24;15.82;;;9.73;;
71236;SDS011;58984;51.960;5.582;2023-11-21T13:25:51;12.90;;;8.05;;
71236;SDS011;58984;51.960;5.582;2023-11-21T13:28:17;14.40;;;8.40;;
71236;SDS011;58984;51.960;5.582;2023-11-21T13:30:46;17.85;;;8.93;;
71236;SDS011;58984;51.960;5.582;2023-11-21T13:33:13;16.80;;;9.57;;
71236;SDS011;58984;51.960;5.582;2023-11-21T13:35:42;15.75;;;7.97;;
71236;SDS011;58984;51.960;5.582;2023-11-21T13:38:16;12.77;;;8.35;;
71236;SDS011;58984;51.960;5.582;2023-11-21T13:40:49;14.88;;;9.20;;
71236;SDS011;58984;51.960;5.582;2023-11-21T13:43:18;15.70;;;9.27;;
71236;SDS011;58984;51.960;5.582;2023-11-21T13:45:46;15.93;;;9.75;;
71236;SDS011;58984;51.960;5.582;2023-11-21T13:48:14;13.73;;;8.82;;
71236;SDS011;58984;51.960;5.582;2023-11-21T13:50:44;15.13;;;8.80;;
71236;SDS011;58984;51.960;5.582;2023-11-21T13:53:20;18.75;;;9.85;;
71236;SDS011;58984;51.960;5.582;2023-11-21T13:55:52;11.77;;;8.57;;
71236;SDS011;58984;51.960;5.582;2023-11-21T13:58:24;18.10;;;10.02;;
71236;SDS011;58984;51.960;5.582;2023-11-21T14:01:06;14.32;;;9.60;;
71236;SDS011;58984;51.960;5.582;2023-11-21T14:03:49;16.52;;;9.25;;
71236;SDS011;58984;51.960;5.582;2023-11-21T14:06:21;14.70;;;8.60;;
71236;SDS011;58984;51.960;5.582;2023-11-21T14:08:53;15.82;;;8.63;;
71236;SDS011;58984;51.960;5.582;2023-11-21T14:11:21;17.33;;;9.38;;
71236;SDS011;58984;51.960;5.582;2023-11-21T14:13:47;14.93;;;9.15;;
71236;SDS011;58984;51.960;5.582;2023-11-21T14:16:13;16.33;;;10.07;;
71236;SDS011;58984;51.960;5.582;2023-11-21T14:18:41;16.42;;;9.20;;
71236;SDS011;58984;51.960;5.582;2023-11-21T14:21:18;17.27;;;9.85;;
71236;SDS011;58984;51.960;5.582;2023-11-21T14:23:44;12.75;;;8.10;;
71236;SDS011;58984;51.960;5.582;2023-11-21T14:26:10;14.15;;;8.73;;
71236;SDS011;58984;51.960;5.582;2023-11-21T14:28:39;15.40;;;8.82;;
71236;SDS011;58984;51.960;5.582;2023-11-21T14:31:04;12.85;;;8.00;;
71236;SDS011;58984;51.960;5.582;2023-11-21T14:33:30;12.98;;;8.57;;
71236;SDS011;58984;51.960;5.582;2023-11-21T14:35:56;16.25;;;9.15;;
71236;SDS011;58984;51.960;5.582;2023-11-21T14:38:22;14.52;;;7.60;;
71236;SDS011;58984;51.960;5.582;2023-11-21T14:40:48;13.15;;;8.23;;
71236;SDS011;58984;51.960;5.582;2023-11-21T14:43:14;14.65;;;8.40;;
71236;SDS011;58984;51.960;5.582;2023-11-21T14:45:40;14.43;;;7.47;;
71236;SDS011;58984;51.960;5.582;2023-11-21T14:48:06;11.63;;;7.38;;
71236;SDS011;58984;51.960;5.582;2023-11-21T14:50:43;12.57;;;7.72;;
71236;SDS011;58984;51.960;5.582;2023-11-21T14:53:09;13.25;;;7.60;;
71236;SDS011;58984;51.960;5.582;2023-11-21T14:55:38;14.98;;;8.00;;
71236;SDS011;58984;51.960;5.582;2023-11-21T14:58:19;12.65;;;7.80;;
71236;SDS011;58984;51.960;5.582;2023-11-21T15:00:58;15.95;;;7.95;;
71236;SDS011;58984;51.960;5.582;2023-11-21T15:03:25;14.65;;;7.72;;
71236;SDS011;58984;51.960;5.582;2023-11-21T15:06:01;18.85;;;9.68;;
71236;SDS011;58984;51.960;5.582;2023-11-21T15:08:50;19.80;;;9.35;;
71236;SDS011;58984;51.960;5.582;2023-11-21T15:11:22;19.08;;;10.10;;
71236;SDS011;58984;51.960;5.582;2023-11-21T15:13:54;15.88;;;9.57;;
71236;SDS011;58984;51.960;5.582;2023-11-21T15:16:20;19.00;;;10.57;;
71236;SDS011;58984;51.960;5.582;2023-11-21T15:18:46;20.45;;;11.68;;
71236;SDS011;58984;51.960;5.582;2023-11-21T15:21:11;19.63;;;11.20;;
71236;SDS011;58984;51.960;5.582;2023-11-21T15:23:37;18.65;;;10.88;;
71236;SDS011;58984;51.960;5.582;2023-11-21T15:26:06;18.08;;;9.75;;